Time;durP1;ratioP1;P1;durP2;ratioP2;P2;SDS_P1;SDS_P2;PMS_P1;PMS_P2;Temp;Humidity;BMP_temperature;BMP_pressure;BME280_temperature;BME280_humidity;BME280_pressure;Samples;Min_cycle;Max_cycle;Signal;HPM_P1;HPM_P2
2022/10/20 00:02:08;;;;;;;;;;;;;;;14.53;100.00;98540.28;5072714;28;19924;-71
2022/10/20 00:04:34;;;;;;;;;;;;;;;14.46;100.00;98542.44;5073808;28;19932;-71
2022/10/20 00:07:01;;;;;;;;;;;;;;;14.42;100.00;98538.72;5077011;28;20010;-71
2022/10/20 00:09:27;;;;;;;;;;;;;;;14.50;100.00;98530.09;5077083;28;19958;-73
2022/10/20 00:11:55;;;;;;;;;;;;;;;14.56;100.00;98529.81;5074218;28;20000;-73
2022/10/20 00:14:21;;;;;;;;;;;;;;;14.63;100.00;98534.09;5072497;28;19956;-72
2022/10/20 00:16:48;;;;;;;;;;;;;;;14.64;100.00;98525.72;5075562;28;19925;-72
2022/10/20 00:19:14;;;;;;;;;;;;;;;14.65;100.00;98530.03;5075822;28;19955;-72
2022/10/20 00:21:40;;;;;;;;;;;;;;;14.68;100.00;98534.88;5076132;28;19925;-72
2022/10/20 00:24:07;;;;;;;;;;;;;;;14.71;100.00;98539.69;5073347;28;19929;-72
2022/10/20 00:26:33;;;;;;;;;;;;;;;14.69;100.00;98528.41;5088721;28;20462;-72
2022/10/20 00:29:02;;;;;;;;;;;;;;;14.66;100.00;98528.16;5065256;28;20234;-72
2022/10/20 00:31:28;;;;;;;;;;;;;;;14.67;100.00;98527.09;5071739;28;19935;-72
2022/10/20 00:33:55;;;;;;;;;;;;;;;14.66;100.00;98534.34;5076179;28;19956;-72
2022/10/20 00:36:22;;;;;;;;;;;;;;;14.69;100.00;98527.63;5076824;28;19947;-71
2022/10/20 00:38:49;;;;;;;;;;;;;;;14.69;100.00;98533.00;5074427;28;19956;-71
2022/10/20 00:41:16;;;;;;;;;;;;;;;14.63;100.00;98521.47;5072897;28;19925;-71
2022/10/20 00:43:44;;;;;;;;;;;;;;;14.60;100.00;98527.38;5077110;28;19935;-71
2022/10/20 00:46:14;;;;;;;;;;;;;;;14.53;100.00;98524.16;5080179;28;19971;-71
2022/10/20 00:48:41;;;;;;;;;;;;;;;14.53;100.00;98522.28;5094554;28;19959;-71
2022/10/20 00:51:08;;;;;;;;;;;;;;;14.53;100.00;98518.78;5075355;28;19936;-72
2022/10/20 00:53:34;;;;;;;;;;;;;;;14.54;100.00;98515.03;5080294;28;19925;-72
2022/10/20 00:56:01;;;;;;;;;;;;;;;14.56;100.00;98510.19;5076513;28;19956;-71
2022/10/20 00:58:28;;;;;;;;;;;;;;;14.51;100.00;98510.22;5076677;28;19929;-72
2022/10/20 01:00:56;;;;;;;;;;;;;;;14.53;100.00;98516.09;5079199;28;19928;-72
2022/10/20 01:03:25;;;;;;;;;;;;;;;14.52;100.00;98512.59;5080210;28;19935;-71
2022/10/20 01:05:52;;;;;;;;;;;;;;;14.52;100.00;98507.22;5078211;28;19936;-70
2022/10/20 01:08:18;;;;;;;;;;;;;;;14.47;100.00;98504.56;5077052;28;19924;-71
2022/10/20 01:10:48;;;;;;;;;;;;;;;14.45;100.00;98511.31;5077753;28;19967;-71
2022/10/20 01:13:19;;;;;;;;;;;;;;;14.44;100.00;98504.31;5079446;28;19935;-71
2022/10/20 01:15:51;;;;;;;;;;;;;;;14.45;100.00;98503.25;5077891;28;19924;-71
2022/10/20 01:18:22;;;;;;;;;;;;;;;14.45;100.00;98503.25;5076508;28;20313;-71
2022/10/20 01:21:04;;;;;;;;;;;;;;;14.25;100.00;98497.88;5078173;28;19966;-70
2022/10/20 01:23:43;;;;;;;;;;;;;;;13.87;100.00;98499.25;5066742;28;19988;-70
2022/10/20 01:26:30;;;;;;;;;;;;;;;13.97;100.00;98499.25;5069162;28;19925;-71
2022/10/20 01:28:59;;;;;;;;;;;;;;;14.11;100.00;98504.88;5068845;28;19964;-71
2022/10/20 01:31:28;;;;;;;;;;;;;;;14.20;100.00;98497.88;5075875;28;19956;-72
2022/10/20 01:33:59;;;;;;;;;;;;;;;14.26;100.00;98496.81;5094332;28;19960;-72
2022/10/20 01:36:28;;;;;;;;;;;;;;;14.29;100.00;98488.19;5079206;28;19960;-71
2022/10/20 01:38:56;;;;;;;;;;;;;;;14.23;100.00;98483.91;5076053;28;19932;-71
2022/10/20 01:41:26;;;;;;;;;;;;;;;14.26;100.00;98483.38;5075773;28;19968;-72
2022/10/20 01:43:54;;;;;;;;;;;;;;;14.26;100.00;98478.81;5078623;28;19925;-72
2022/10/20 01:46:24;;;;;;;;;;;;;;;14.14;100.00;98480.19;5079212;28;19964;-71
2022/10/20 01:48:50;;;;;;;;;;;;;;;14.10;100.00;98476.41;5077034;28;19954;-71
2022/10/20 01:51:17;;;;;;;;;;;;;;;14.15;100.00;98479.06;5075587;28;20203;-71
2022/10/20 01:53:43;;;;;;;;;;;;;;;14.16;100.00;98476.13;5078754;28;19924;-71
2022/10/20 01:56:14;;;;;;;;;;;;;;;14.18;100.00;98468.59;5075352;28;19925;-71
2022/10/20 01:59:13;;;;;;;;;;;;;;;14.19;100.00;98466.72;5076358;28;19928;-71
2022/10/20 02:01:49;;;;;;;;;;;;;;;14.20;100.00;98465.66;5015801;28;19936;-71
2022/10/20 02:04:18;;;;;;;;;;;;;;;14.18;100.00;98473.16;5013239;28;19925;-71
2022/10/20 02:06:50;;;;;;;;;;;;;;;14.16;100.00;98470.75;5046239;28;19947;-71
2022/10/20 02:09:19;;;;;;;;;;;;;;;14.15;100.00;98474.50;5078735;28;19951;-71
2022/10/20 02:11:50;;;;;;;;;;;;;;;14.13;100.00;98475.88;5092281;28;19991;-71
2022/10/20 02:14:18;;;;;;;;;;;;;;;14.08;100.00;98473.97;5075201;28;19947;-71
2022/10/20 02:16:48;;;;;;;;;;;;;;;14.13;100.00;98465.13;5076669;28;19925;-71
2022/10/20 02:19:17;;;;;;;;;;;;;;;14.11;100.00;98469.97;5078619;28;20512;-71
2022/10/20 02:21:44;;;;;;;;;;;;;;;14.10;100.00;98461.09;5077097;28;19959;-71
2022/10/20 02:24:11;;;;;;;;;;;;;;;14.10;100.00;98471.03;5075314;28;19933;-71
2022/10/20 02:26:38;;;;;;;;;;;;;;;14.05;100.00;98461.91;5075951;28;19925;-71
2022/10/20 02:29:10;;;;;;;;;;;;;;;14.07;100.00;98464.34;5078151;28;19946;-71
2022/10/20 02:31:37;;;;;;;;;;;;;;;14.03;100.00;98456.00;5077839;28;19967;-71
2022/10/20 02:34:04;;;;;;;;;;;;;;;13.98;100.00;98457.91;5075102;28;19960;-71
2022/10/20 02:36:31;;;;;;;;;;;;;;;13.09;100.00;98468.38;5075148;28;19925;-72
2022/10/20 02:38:57;;;;;;;;;;;;;;;12.92;100.00;98472.03;5079096;28;19924;-71
2022/10/20 02:41:24;;;;;;;;;;;;;;;12.97;100.00;98463.19;5094340;28;19984;-71
2022/10/20 02:43:50;;;;;;;;;;;;;;;13.32;100.00;98465.97;5076039;28;19931;-71
2022/10/20 02:46:17;;;;;;;;;;;;;;;13.13;100.00;98453.34;5074761;28;19988;-71
2022/10/20 02:48:43;;;;;;;;;;;;;;;13.26;100.00;98453.63;5075989;28;19931;-70
2022/10/20 02:51:12;;;;;;;;;;;;;;;13.36;100.00;98452.84;5076654;28;19947;-70
2022/10/20 02:53:38;;;;;;;;;;;;;;;13.39;100.00;98439.69;5076869;28;19924;-70
2022/10/20 02:56:05;;;;;;;;;;;;;;;13.54;100.00;98446.94;5074507;28;20231;-71
2022/10/20 02:58:31;;;;;;;;;;;;;;;13.59;100.00;98444.25;5074146;28;19925;-71
2022/10/20 03:00:58;;;;;;;;;;;;;;;13.65;100.00;98451.22;5076201;28;19924;-71
2022/10/20 03:03:24;;;;;;;;;;;;;;;13.72;100.00;98442.91;5078124;28;19924;-72
2022/10/20 03:05:50;;;;;;;;;;;;;;;13.74;100.00;98446.13;5074990;28;19925;-70
2022/10/20 03:08:18;;;;;;;;;;;;;;;13.68;100.00;98437.25;5074069;28;19925;-71
2022/10/20 03:10:44;;;;;;;;;;;;;;;13.62;100.00;98438.34;5075950;28;19931;-70
2022/10/20 03:13:13;;;;;;;;;;;;;;;13.69;100.00;98444.25;5077120;28;19924;-71
2022/10/20 03:15:39;;;;;;;;;;;;;;;13.70;100.00;98435.13;5092321;28;19921;-71
2022/10/20 03:18:06;;;;;;;;;;;;;;;13.60;100.00;98427.06;5073178;28;19935;-71
2022/10/20 03:20:35;;;;;;;;;;;;;;;13.61;100.00;98425.19;5072430;28;19947;-71
2022/10/20 03:23:02;;;;;;;;;;;;;;;13.48;100.00;98426.56;5064525;28;20522;-71
2022/10/20 03:25:30;;;;;;;;;;;;;;;13.50;100.00;98427.06;5092979;28;20068;-71
2022/10/20 03:27:57;;;;;;;;;;;;;;;13.54;100.00;98428.16;5073477;28;19925;-71
2022/10/20 03:30:23;;;;;;;;;;;;;;;13.59;100.00;98424.66;5074309;28;19960;-71
2022/10/20 03:32:50;;;;;;;;;;;;;;;13.52;100.00;98416.91;5075489;28;20392;-71
2022/10/20 03:35:16;;;;;;;;;;;;;;;13.50;100.00;98421.72;5077857;28;19991;-71
2022/10/20 03:37:42;;;;;;;;;;;;;;;13.53;100.00;98421.97;5076687;28;19967;-71
2022/10/20 03:40:09;;;;;;;;;;;;;;;13.58;100.00;98415.81;5089766;28;19960;-71
2022/10/20 03:42:37;;;;;;;;;;;;;;;13.38;100.00;98403.22;5074587;28;19924;-71
2022/10/20 03:45:04;;;;;;;;;;;;;;;12.98;100.00;98414.69;5092465;28;20162;-71
2022/10/20 03:47:30;;;;;;;;;;;;;;;12.88;100.00;98411.16;5076828;28;19925;-71
2022/10/20 03:49:57;;;;;;;;;;;;;;;13.05;100.00;98422.47;5073550;28;20008;-71
2022/10/20 03:52:23;;;;;;;;;;;;;;;13.23;100.00;98413.13;5072154;28;19931;-71
2022/10/20 03:54:49;;;;;;;;;;;;;;;13.31;100.00;98415.25;5075745;28;19955;-71
2022/10/20 03:57:16;;;;;;;;;;;;;;;13.38;100.00;98422.00;5077037;28;19963;-71
2022/10/20 03:59:44;;;;;;;;;;;;;;;13.42;100.00;98415.03;5075581;28;20241;-71
2022/10/20 04:02:22;;;;;;;;;;;;;;;13.46;100.00;98417.97;5073305;28;20392;-71
2022/10/20 04:04:48;;;;;;;;;;;;;;;13.49;100.00;98420.13;5075475;28;19970;-71
2022/10/20 04:07:15;;;;;;;;;;;;;;;13.50;100.00;98421.72;5076815;28;20015;-71
2022/10/20 04:09:41;;;;;;;;;;;;;;;13.50;100.00;98421.72;5091488;28;19967;-70
2022/10/20 04:12:07;;;;;;;;;;;;;;;13.52;100.00;98423.03;5073009;28;19947;-71
2022/10/20 04:14:34;;;;;;;;;;;;;;;13.50;100.00;98419.84;5073197;28;19983;-71
2022/10/20 04:17:01;;;;;;;;;;;;;;;13.41;100.00;98416.09;5065709;28;19936;-70
2022/10/20 04:19:28;;;;;;;;;;;;;;;13.37;100.00;98411.50;5077126;28;19925;-70
2022/10/20 04:21:54;;;;;;;;;;;;;;;12.98;100.00;98412.00;5080423;28;20000;-70
2022/10/20 04:24:20;;;;;;;;;;;;;;;12.93;100.00;98403.97;5094499;28;19932;-70
2022/10/20 04:26:47;;;;;;;;;;;;;;;13.09;100.00;98401.31;5077689;28;19925;-71
2022/10/20 04:29:14;;;;;;;;;;;;;;;13.17;100.00;98398.09;5095752;28;20000;-71
2022/10/20 04:31:40;;;;;;;;;;;;;;;13.20;100.00;98395.69;5079303;28;19964;-70
2022/10/20 04:34:08;;;;;;;;;;;;;;;13.29;100.00;98402.13;5076515;28;19948;-71
2022/10/20 04:36:34;;;;;;;;;;;;;;;13.33;100.00;98395.16;5076666;28;19936;-71
2022/10/20 04:39:01;;;;;;;;;;;;;;;13.36;100.00;98400.00;5080183;28;19932;-71
2022/10/20 04:41:27;;;;;;;;;;;;;;;13.39;100.00;98391.41;5080271;28;19931;-71
2022/10/20 04:43:53;;;;;;;;;;;;;;;13.39;100.00;98393.28;5077219;28;19984;-71
2022/10/20 04:46:20;;;;;;;;;;;;;;;13.27;100.00;98395.44;5076472;28;20381;-70
2022/10/20 04:48:46;;;;;;;;;;;;;;;13.29;100.00;98385.22;5078176;28;19924;-71
2022/10/20 04:51:14;;;;;;;;;;;;;;;13.31;100.00;98389.25;5080043;28;19924;-70
2022/10/20 04:53:41;;;;;;;;;;;;;;;13.32;100.00;98390.88;5078935;28;19976;-71
2022/10/20 04:56:08;;;;;;;;;;;;;;;13.23;100.00;98372.91;5076195;28;20326;-71
2022/10/20 04:58:35;;;;;;;;;;;;;;;12.94;100.00;98389.47;5076475;28;20516;-71
2022/10/20 05:01:02;;;;;;;;;;;;;;;13.02;100.00;98376.63;5080266;28;20027;-72
2022/10/20 05:03:28;;;;;;;;;;;;;;;13.05;100.00;98376.09;5080285;28;19995;-71
2022/10/20 05:05:55;;;;;;;;;;;;;;;12.59;100.00;98385.94;5092460;28;19975;-71
2022/10/20 05:08:22;;;;;;;;;;;;;;;12.20;100.00;98385.50;5074882;28;19925;-71
2022/10/20 05:10:49;;;;;;;;;;;;;;;11.76;100.00;98380.47;5077987;28;19931;-72
2022/10/20 05:13:15;;;;;;;;;;;;;;;11.85;100.00;98392.28;5079543;28;19924;-72
2022/10/20 05:15:41;;;;;;;;;;;;;;;12.28;100.00;98390.38;5079061;28;19932;-71
2022/10/20 05:18:08;;;;;;;;;;;;;;;11.89;100.00;98381.88;5075796;28;19992;-71
2022/10/20 05:20:34;;;;;;;;;;;;;;;11.77;100.00;98383.94;5076079;28;19999;-71
2022/10/20 05:23:00;;;;;;;;;;;;;;;11.38;100.00;98376.19;5065891;28;19952;-71
2022/10/20 05:25:28;;;;;;;;;;;;;;;11.89;100.00;98377.34;5079794;28;19924;-71
2022/10/20 05:27:55;;;;;;;;;;;;;;;12.29;100.00;98383.94;5092037;28;20031;-71
2022/10/20 05:30:21;;;;;;;;;;;;;;;12.46;100.00;98376.50;5074546;28;19952;-71
2022/10/20 05:32:47;;;;;;;;;;;;;;;12.72;100.00;98380.84;5077401;28;19988;-70
2022/10/20 05:35:14;;;;;;;;;;;;;;;12.59;100.00;98380.56;5078980;28;19928;-71
2022/10/20 05:37:41;;;;;;;;;;;;;;;11.87;100.00;98379.47;5078527;28;19979;-71
2022/10/20 05:40:08;;;;;;;;;;;;;;;11.75;100.00;98378.06;5074117;28;19928;-71
2022/10/20 05:42:36;;;;;;;;;;;;;;;12.10;100.00;98374.78;5075468;28;19929;-71
2022/10/20 05:45:02;;;;;;;;;;;;;;;12.31;100.00;98371.09;5078939;28;20004;-71
2022/10/20 05:47:29;;;;;;;;;;;;;;;12.36;100.00;98371.91;5094297;28;19935;-71
2022/10/20 05:49:55;;;;;;;;;;;;;;;12.54;100.00;98372.50;5075906;28;19968;-71
2022/10/20 05:52:21;;;;;;;;;;;;;;;12.41;100.00;98379.97;5075411;28;19974;-71
2022/10/20 05:54:48;;;;;;;;;;;;;;;12.34;100.00;98371.38;5083771;28;19967;-71
2022/10/20 05:57:14;;;;;;;;;;;;;;;12.52;100.00;98367.41;5075328;28;19925;-71
2022/10/20 05:59:42;;;;;;;;;;;;;;;12.67;100.00;98366.63;5076014;28;19940;-71
2022/10/20 06:02:09;;;;;;;;;;;;;;;12.51;100.00;98370.34;5078771;28;19931;-71
2022/10/20 06:04:35;;;;;;;;;;;;;;;12.50;100.00;98376.78;5093919;28;19925;-70
2022/10/20 06:07:02;;;;;;;;;;;;;;;12.66;100.00;98371.19;5074019;28;19924;-71
2022/10/20 06:09:28;;;;;;;;;;;;;;;12.70;100.00;98377.63;5073901;28;20201;-71
2022/10/20 06:11:54;;;;;;;;;;;;;;;12.78;100.00;98370.97;5078198;28;19967;-70
2022/10/20 06:14:21;;;;;;;;;;;;;;;12.83;100.00;98369.09;5078538;28;19982;-71
2022/10/20 06:16:51;;;;;;;;;;;;;;;12.86;100.00;98370.44;5076698;28;19930;-70
2022/10/20 06:19:18;;;;;;;;;;;;;;;12.84;100.00;98377.94;5073746;28;19925;-70
2022/10/20 06:21:44;;;;;;;;;;;;;;;12.73;100.00;98371.75;5075944;28;19984;-70
2022/10/20 06:24:11;;;;;;;;;;;;;;;12.40;100.00;98370.34;5076945;28;19939;-71
2022/10/20 06:26:38;;;;;;;;;;;;;;;11.99;100.00;98373.09;5075369;28;19932;-71
2022/10/20 06:29:05;;;;;;;;;;;;;;;12.36;100.00;98376.47;5077981;28;19928;-72
2022/10/20 06:31:33;;;;;;;;;;;;;;;12.52;100.00;98383.50;5077780;28;19995;-71
2022/10/20 06:34:01;;;;;;;;;;;;;;;12.65;100.00;98390.22;5074164;28;20416;-70
2022/10/20 06:36:28;;;;;;;;;;;;;;;12.76;100.00;98379.25;5089628;28;19924;-70
2022/10/20 06:38:54;;;;;;;;;;;;;;;12.84;100.00;98384.09;5092469;28;19925;-70
2022/10/20 06:41:21;;;;;;;;;;;;;;;12.87;100.00;98378.19;5077550;28;19929;-70
2022/10/20 06:43:47;;;;;;;;;;;;;;;12.93;100.00;98379.84;5074513;28;19975;-71
2022/10/20 06:46:15;;;;;;;;;;;;;;;12.94;100.00;98375.25;5073067;28;19963;-71
2022/10/20 06:48:42;;;;;;;;;;;;;;;12.89;100.00;98369.91;5075041;28;19931;-71
2022/10/20 06:51:11;;;;;;;;;;;;;;;12.90;100.00;98376.88;5077689;28;20183;-71
2022/10/20 06:53:38;;;;;;;;;;;;;;;12.89;100.00;98376.06;5077114;28;19971;-71
2022/10/20 06:56:06;;;;;;;;;;;;;;;12.83;100.00;98384.38;5072791;28;19978;-70
2022/10/20 06:58:33;;;;;;;;;;;;;;;12.68;100.00;98374.44;5074080;28;19925;-71
2022/10/20 07:00:59;;;;;;;;;;;;;;;12.69;100.00;98369.88;5077714;28;19936;-71
2022/10/20 07:03:26;;;;;;;;;;;;;;;12.71;100.00;98373.09;5076485;28;19991;-71
2022/10/20 07:05:53;;;;;;;;;;;;;;;12.82;100.00;98367.47;5075022;28;20283;-70
2022/10/20 07:08:20;;;;;;;;;;;;;;;12.65;100.00;98358.06;5074225;28;19924;-70
2022/10/20 07:10:47;;;;;;;;;;;;;;;12.40;100.00;98356.94;5075626;28;19960;-70
2022/10/20 07:13:13;;;;;;;;;;;;;;;12.56;100.00;98365.84;5075878;28;20114;-71
2022/10/20 07:15:39;;;;;;;;;;;;;;;12.56;100.00;98363.16;5076600;28;20020;-70
2022/10/20 07:18:06;;;;;;;;;;;;;;;12.68;100.00;98363.72;5073288;28;20000;-71
2022/10/20 07:20:33;;;;;;;;;;;;;;;12.75;100.00;98366.91;5089915;28;19985;-70
2022/10/20 07:22:59;;;;;;;;;;;;;;;12.64;100.00;98369.84;5077369;28;19924;-70
2022/10/20 07:25:27;;;;;;;;;;;;;;;12.63;100.00;98371.72;5077250;28;19924;-71
2022/10/20 07:27:54;;;;;;;;;;;;;;;12.71;100.00;98367.72;5074603;28;20015;-70
2022/10/20 07:30:20;;;;;;;;;;;;;;;12.52;100.00;98369.28;5074209;28;19997;-71
2022/10/20 07:32:47;;;;;;;;;;;;;;;12.11;100.00;98374.50;5091576;28;19936;-72
2022/10/20 07:35:13;;;;;;;;;;;;;;;11.87;100.00;98382.16;5077117;28;19928;-71
2022/10/20 07:37:39;;;;;;;;;;;;;;;11.84;100.00;98373.84;5077163;28;19976;-71
2022/10/20 07:40:06;;;;;;;;;;;;;;;11.77;100.00;98370.56;5089692;28;19925;-71
2022/10/20 07:42:34;;;;;;;;;;;;;;;11.49;100.00;98371.72;5074263;28;19925;-71
2022/10/20 07:45:00;;;;;;;;;;;;;;;11.05;100.00;98373.00;5064525;28;19932;-71
2022/10/20 07:47:26;;;;;;;;;;;;;;;11.27;100.00;98371.00;5072541;28;19925;-71
2022/10/20 07:49:53;;;;;;;;;;;;;;;10.96;100.00;98372.63;5076370;28;19988;-70
2022/10/20 07:52:19;;;;;;;;;;;;;;;10.74;100.00;98375.38;5092318;28;19935;-70
2022/10/20 07:54:46;;;;;;;;;;;;;;;10.73;100.00;98360.41;5081747;28;20070;-70
2022/10/20 07:57:12;;;;;;;;;;;;;;;10.43;100.00;98357.41;5083834;28;19970;-70
2022/10/20 07:59:40;;;;;;;;;;;;;;;10.44;100.00;98369.72;5083130;28;19929;-70
2022/10/20 08:02:06;;;;;;;;;;;;;;;10.28;100.00;98367.91;5080149;28;19931;-71
2022/10/20 08:04:33;;;;;;;;;;;;;;;10.24;100.00;98359.59;5080060;28;20267;-70
2022/10/20 08:07:00;;;;;;;;;;;;;;;10.31;100.00;98359.41;5083841;28;20445;-70
2022/10/20 08:09:26;;;;;;;;;;;;;;;10.29;100.00;98357.00;5083988;28;19924;-71
2022/10/20 08:11:53;;;;;;;;;;;;;;;10.32;100.00;98344.22;5081261;28;19974;-70
2022/10/20 08:14:19;;;;;;;;;;;;;;;10.33;100.00;98343.97;5080269;28;19980;-71
2022/10/20 08:16:47;;;;;;;;;;;;;;;10.51;100.00;98337.47;5081644;28;19925;-71
2022/10/20 08:19:13;;;;;;;;;;;;;;;10.42;100.00;98330.97;5083377;28;19935;-70
2022/10/20 08:21:40;;;;;;;;;;;;;;;10.47;100.00;98325.69;5083092;28;19931;-70
2022/10/20 08:24:06;;;;;;;;;;;;;;;10.51;100.00;98327.59;5080186;28;19963;-72
2022/10/20 08:26:32;;;;;;;;;;;;;;;10.42;100.00;98331.78;5080496;28;19952;-71
2022/10/20 08:28:59;;;;;;;;;;;;;;;10.50;100.00;98334.00;5083497;28;19925;-71
2022/10/20 08:31:25;;;;;;;;;;;;;;;10.67;100.00;98315.19;5083674;28;19972;-70
2022/10/20 08:33:53;;;;;;;;;;;;;;;10.61;100.00;98322.38;5081026;28;19928;-70
2022/10/20 08:36:20;;;;;;;;;;;;;;;10.71;100.00;98318.97;5079851;28;20024;-70
2022/10/20 08:38:46;;;;;;;;;;;;;;;10.71;100.00;98322.44;5081244;28;19988;-71
2022/10/20 08:41:15;;;;;;;;;;;;;;;10.63;100.00;98327.44;5083286;28;19968;-71
2022/10/20 08:43:42;;;;;;;;;;;;;;;10.74;100.00;98329.94;5081057;28;19986;-71
2022/10/20 08:46:12;;;;;;;;;;;;;;;10.61;100.00;98321.56;5079896;28;19932;-71
2022/10/20 08:48:38;;;;;;;;;;;;;;;10.65;100.00;98323.44;5080218;28;19936;-71
2022/10/20 08:51:06;;;;;;;;;;;;;;;10.80;100.00;98312.91;5083169;28;19924;-71
2022/10/20 08:53:38;;;;;;;;;;;;;;;10.98;100.00;98310.91;5082833;28;19969;-71
2022/10/20 08:56:04;;;;;;;;;;;;;;;11.07;100.00;98312.06;5071631;28;19925;-72
2022/10/20 08:58:31;;;;;;;;;;;;;;;11.15;100.00;98304.38;5079550;28;19988;-71
2022/10/20 09:00:58;;;;;;;;;;;;;;;11.18;100.00;98300.38;5082825;28;19956;-71
2022/10/20 09:03:28;;;;;;;;;;;;;;;11.24;100.00;98294.81;5082028;28;19967;-71
2022/10/20 09:05:56;;;;;;;;;;;;;;;11.35;100.00;98287.66;5077108;28;19924;-70
2022/10/20 09:08:26;;;;;;;;;;;;;;;11.45;100.00;98290.38;5075325;28;19928;-71
2022/10/20 09:10:54;;;;;;;;;;;;;;;11.43;100.00;98276.47;5078694;28;19992;-71
2022/10/20 09:13:23;;;;;;;;;;;;;;;11.38;100.00;98284.47;5078060;28;19939;-71
2022/10/20 09:15:50;;;;;;;;;;;;;;;11.48;100.00;98291.75;5077632;28;20019;-71
2022/10/20 09:18:18;;;;;;;;;;;;;;;11.52;100.00;98306.19;5075973;28;19967;-71
2022/10/20 09:20:47;;;;;;;;;;;;;;;11.54;100.00;98294.19;5077223;28;19924;-71
2022/10/20 09:23:14;;;;;;;;;;;;;;;11.67;100.00;98279.50;5079242;28;19984;-71
2022/10/20 09:25:43;;;;;;;;;;;;;;;11.69;100.00;98278.22;5078443;28;19929;-71
2022/10/20 09:28:17;;;;;;;;;;;;;;;11.53;100.00;98278.38;5075870;28;19997;-71
2022/10/20 09:30:44;;;;;;;;;;;;;;;11.62;100.00;98280.31;5076953;28;20262;-71
2022/10/20 09:33:20;;;;;;;;;;;;;;;11.64;100.00;98277.34;5077712;28;19924;-71
2022/10/20 09:35:47;;;;;;;;;;;;;;;11.72;100.00;98274.22;5077480;28;19924;-71
2022/10/20 09:38:17;;;;;;;;;;;;;;;11.75;100.00;98282.56;5076121;28;20066;-71
2022/10/20 09:40:46;;;;;;;;;;;;;;;11.80;100.00;98285.25;5076667;28;20363;-71
2022/10/20 09:43:16;;;;;;;;;;;;;;;11.93;100.00;98291.16;5079114;28;19935;-72
2022/10/20 09:45:50;;;;;;;;;;;;;;;11.96;100.00;98279.94;5076690;28;19928;-71
2022/10/20 09:48:20;;;;;;;;;;;;;;;12.07;100.00;98276.25;5075404;28;19980;-72
2022/10/20 09:50:49;;;;;;;;;;;;;;;12.14;100.00;98274.09;5077101;28;20023;-71
2022/10/20 09:53:18;;;;;;;;;;;;;;;12.20;100.00;98270.38;5078866;28;19992;-71
2022/10/20 09:55:48;;;;;;;;;;;;;;;12.21;100.00;98245.22;5077115;28;19971;-71
2022/10/20 09:58:16;;;;;;;;;;;;;;;12.39;100.00;98258.91;5075165;28;19952;-71
2022/10/20 10:00:45;;;;;;;;;;;;;;;12.41;100.00;98242.53;5076255;28;19931;-71
2022/10/20 10:03:19;;;;;;;;;;;;;;;12.49;100.00;98231.31;5079349;28;20385;-71
2022/10/20 10:05:46;;;;;;;;;;;;;;;12.52;100.00;98230.78;5077523;28;19924;-71
2022/10/20 10:08:14;;;;;;;;;;;;;;;12.62;100.00;98225.44;5075567;28;20715;-72
2022/10/20 10:10:40;;;;;;;;;;;;;;;12.50;100.00;98221.41;5076257;28;19925;-72
2022/10/20 10:13:20;;;;;;;;;;;;;;;12.60;100.00;98226.75;5078594;28;19925;-72
2022/10/20 10:15:47;;;;;;;;;;;;;;;12.75;100.00;98229.47;5075154;28;19956;-72
2022/10/20 10:18:14;;;;;;;;;;;;;;;12.85;100.00;98232.91;5075149;28;19924;-72
2022/10/20 10:20:41;;;;;;;;;;;;;;;12.83;100.00;98231.59;5075406;28;19931;-72
2022/10/20 10:23:18;;;;;;;;;;;;;;;12.94;100.00;98235.84;5093963;28;19996;-72
2022/10/20 10:25:44;;;;;;;;;;;;;;;12.95;100.00;98230.22;5077067;28;19999;-72
2022/10/20 10:28:22;;;;;;;;;;;;;;;12.97;100.00;98233.44;5074658;28;19960;-72
2022/10/20 10:30:48;;;;;;;;;;;;;;;12.99;100.00;98252.75;5075967;28;19925;-72
2022/10/20 10:33:23;;;;;;;;;;;;;;;12.95;100.00;98242.84;5078331;28;20004;-72
2022/10/20 10:35:50;;;;;;;;;;;;;;;13.22;100.00;98229.94;5076232;28;19995;-73
2022/10/20 10:38:16;;;;;;;;;;;;;;;13.28;100.00;98236.09;5073884;28;19952;-71
2022/10/20 10:40:48;;;;;;;;;;;;;;;13.30;100.00;98231.28;5076232;28;19924;-71
2022/10/20 10:43:28;;;;;;;;;;;;;;;13.34;100.00;98232.31;5077631;28;19955;-71
2022/10/20 10:45:57;;;;;;;;;;;;;;;13.48;100.00;98226.13;5090614;28;19924;-71
2022/10/20 10:48:32;;;;;;;;;;;;;;;13.47;100.00;98224.50;5074051;28;19924;-72
2022/10/20 10:51:00;;;;;;;;;;;;;;;13.47;100.00;98215.66;5075954;28;19924;-72
2022/10/20 10:53:38;;;;;;;;;;;;;;;13.59;100.00;98218.00;5093235;28;20000;-71
2022/10/20 10:56:11;;;;;;;;;;;;;;;13.58;100.00;98206.50;5066793;28;19925;-71
2022/10/20 10:58:43;;;;;;;;;;;;;;;13.69;100.00;98196.50;5075161;28;19956;-71
2022/10/20 11:01:18;;;;;;;;;;;;;;;13.84;100.00;98191.88;5078018;28;20042;-71
2022/10/20 11:03:50;;;;;;;;;;;;;;;13.91;100.00;98189.69;5076684;28;19925;-71
2022/10/20 11:06:21;;;;;;;;;;;;;;;13.91;100.00;98176.25;5073614;28;19932;-71
2022/10/20 11:08:57;;;;;;;;;;;;;;;14.12;100.00;98173.44;5075862;28;19955;-71
2022/10/20 11:11:32;;;;;;;;;;;;;;;14.19;100.00;98168.56;5077737;28;19925;-71
2022/10/20 11:14:07;;;;;;;;;;;;;;;14.24;100.00;98161.25;5075260;28;19968;-71
2022/10/20 11:16:38;;;;;;;;;;;;;;;14.28;100.00;98158.81;5073658;28;19931;-71
2022/10/20 11:19:19;;;;;;;;;;;;;;;14.19;100.00;98157.81;5065972;28;19925;-72
2022/10/20 11:21:51;;;;;;;;;;;;;;;14.38;100.00;98156.09;5076318;28;19967;-72
2022/10/20 11:24:27;;;;;;;;;;;;;;;14.57;100.00;98154.31;5091266;28;19925;-72
2022/10/20 11:27:00;;;;;;;;;;;;;;;14.63;100.00;98138.94;5075628;28;19950;-72
2022/10/20 11:29:31;;;;;;;;;;;;;;;14.58;100.00;98139.78;5077186;28;19924;-72
2022/10/20 11:32:03;;;;;;;;;;;;;;;14.63;100.00;98138.94;5089740;28;19925;-72
2022/10/20 11:34:33;;;;;;;;;;;;;;;14.62;100.00;98140.03;5073846;28;19925;-73
2022/10/20 11:37:02;;;;;;;;;;;;;;;14.81;100.00;98138.22;5077007;28;19983;-72
2022/10/20 11:39:32;;;;;;;;;;;;;;;14.91;100.00;98132.75;5077199;28;19976;-73
2022/10/20 11:42:01;;;;;;;;;;;;;;;14.85;100.00;98126.63;5073632;28;19989;-74
2022/10/20 11:44:33;;;;;;;;;;;;;;;15.03;100.00;98120.50;5073584;28;19980;-73
2022/10/20 11:47:00;;;;;;;;;;;;;;;14.92;100.00;98129.75;5077009;28;20006;-73
2022/10/20 11:49:28;;;;;;;;;;;;;;;14.89;100.00;98124.94;5077273;28;20231;-72
2022/10/20 11:52:12;;;;;;;;;;;;;;;14.92;100.00;98123.56;5074580;28;19930;-73
2022/10/20 11:54:52;;;;;;;;;;;;;;;14.94;100.00;98130.28;5070874;28;20601;-71
2022/10/20 11:57:28;;;;;;;;;;;;;;;14.99;100.00;98132.13;5076532;28;19925;-71
2022/10/20 12:00:03;;;;;;;;;;;;;;;14.93;100.00;98122.50;5074059;28;19936;-71
2022/10/20 12:02:48;;;;;;;;;;;;;;;14.93;100.00;98123.31;5073210;28;19924;-72
2022/10/20 12:05:20;;;;;;;;;;;;;;;15.01;100.00;98109.22;5067260;28;20032;-72
2022/10/20 12:07:57;;;;;;;;;;;;;;;14.88;100.00;98109.94;5074799;28;20009;-72
2022/10/20 12:10:28;;;;;;;;;;;;;;;14.94;100.00;98106.09;5077210;28;19983;-72
2022/10/20 12:13:01;;;;;;;;;;;;;;;14.98;100.00;98106.28;5073152;28;19932;-71
2022/10/20 12:15:29;;;;;;;;;;;;;;;15.03;100.00;98095.50;5073667;28;19931;-71
2022/10/20 12:17:57;;;;;;;;;;;;;;;15.17;100.00;98095.59;5076144;28;19928;-71
2022/10/20 12:20:58;;;;;;;;;;;;;;;15.08;100.00;98090.03;5076640;28;20419;-71
2022/10/20 12:23:43;;;;;;;;;;;;;;;14.95;100.00;98091.53;5070319;28;19972;-71
2022/10/20 12:26:25;;;;;;;;;;;;;;;15.02;100.00;98092.00;5066681;28;19925;-72
2022/10/20 12:28:51;;;;;;;;;;;;;;;15.13;100.00;98090.00;5076433;28;19940;-71
2022/10/20 12:31:19;;;;;;;;;;;;;;;15.09;100.00;98076.31;5076526;28;19924;-71
2022/10/20 12:34:02;;;;;;;;;;;;;;;14.99;100.00;98071.06;5075018;28;20841;-71
2022/10/20 12:36:31;;;;;;;;;;;;;;;15.24;100.00;98075.31;5073200;28;19925;-71
2022/10/20 12:39:14;;;;;;;;;;;;;;;15.37;100.00;98065.75;5077921;28;20016;-71
2022/10/20 12:41:43;;;;;;;;;;;;;;;15.36;100.00;98064.94;5079340;28;19960;-71
2022/10/20 12:44:15;;;;;;;;;;;;;;;15.29;100.00;98066.41;5076516;28;19925;-70